WetterOnline ( https://www.wetteronline.de )

Wetter aktuell Halberstadt

Aktuelles Wetter: Wernigerode (240m)

6-stündlich | Neueste Meldungen
Ortszeit Temperatur Wetter
Mi, 18.05. 14:00 24.6° C bewölkt
Mi, 18.05. 8:00 17.8° C bedeckt
Mi, 18.05. 2:00 17.1° C bewölkt
Di, 17.05. 20:00 18.9° C wolkenlos
Di, 17.05. 14:00 20.4° C bewölkt
Di, 17.05. 8:00 15.8° C bedeckt
Di, 17.05. 2:00 16.7° C bewölkt
Mo, 16.05. 20:00 18.0° C bedeckt
Ortszeit Temperatur Wetter
Mi, 18.05. 17:00 25.2° C wolkig
Mi, 18.05. 16:50 25.2° C wolkig
Mi, 18.05. 16:40 24.5° C bedeckt
Mi, 18.05. 16:30 23.5° C bedeckt
Mi, 18.05. 16:20 23.5° C bedeckt
Mi, 18.05. 16:10 23.3° C bedeckt
Mi, 18.05. 16:00 23.5° C bedeckt
Mi, 18.05. 15:30 23.8° C bedeckt
Mi, 18.05. 15:00 23.9° C bedeckt
Mi, 18.05. 14:30 23.9° C bedeckt
Mi, 18.05. 14:00 24.6° C bewölkt
Ortszeit Relative Feuchte Sichtweite
Mi, 18.05. 14:00 47% 65 km
Mi, 18.05. 8:00 68% 40 km
Mi, 18.05. 2:00 78% 35 km
Di, 17.05. 20:00 74% 35 km
Di, 17.05. 14:00 56% 35 km
Di, 17.05. 8:00 79% 30 km
Di, 17.05. 2:00 77% 45 km
Mo, 16.05. 20:00 86% 26 km
Ortszeit Relative Feuchte Sichtweite
Mi, 18.05. 17:00 48% 40 km
Mi, 18.05. 16:50 48% -
Mi, 18.05. 16:40 50% -
Mi, 18.05. 16:30 54% 55 km
Mi, 18.05. 16:20 54% -
Mi, 18.05. 16:10 55% -
Mi, 18.05. 16:00 54% 60 km
Mi, 18.05. 15:30 51% 45 km
Mi, 18.05. 15:00 50% 35 km
Mi, 18.05. 14:30 48% 55 km
Mi, 18.05. 14:00 47% 65 km
Ortszeit Niederschlagsmenge Niederschlagsart
Mi, 18.05. 14:00 0.0 l/m2 in 6 Std. -
Mi, 18.05. 8:00 0.0 l/m2 in 12 Std. -
Mi, 18.05. 2:00 0.0 l/m2 in 6 Std. -
Di, 17.05. 20:00 0.1 l/m2 in 12 Std. -
Di, 17.05. 14:00 0.1 l/m2 in 6 Std. Regen
Di, 17.05. 8:00 0.1 l/m2 in 12 Std. Regen
Di, 17.05. 2:00 0.0 l/m2 in 6 Std. -
Mo, 16.05. 20:00 0.3 l/m2 in 12 Std. Regen
Ortszeit Niederschlagsmenge Niederschlagsart
Mi, 18.05. 17:00 0.0 l/m2 in 1 Std. Regen
Mi, 18.05. 16:50 keine Meldung -
Mi, 18.05. 16:40 keine Meldung -
Mi, 18.05. 16:30 0.0 l/m2 in 1 Std. -
Mi, 18.05. 16:20 keine Meldung -
Mi, 18.05. 16:10 keine Meldung -
Mi, 18.05. 16:00 0.1 l/m2 in 1 Std. Regen
Mi, 18.05. 15:30 0.1 l/m2 in 1 Std. Schneeregen
Mi, 18.05. 15:00 0.0 l/m2 in 1 Std. -
Mi, 18.05. 14:30 0.0 l/m2 in 1 Std. -
Mi, 18.05. 14:00 0.0 l/m2 in 1 Std. -
Ortszeit Stärke Spitze Richtung
km/h Bft. km/h Grad Sektor
Mi, 18.05. 14:00 7 2 29 140° SO
Mi, 18.05. 8:00 4 1 14 110° O
Mi, 18.05. 2:00 0 0 18 - -
Di, 17.05. 20:00 11 2 36 90° O
Di, 17.05. 14:00 15 3 28 320° NW
Di, 17.05. 8:00 17 3 44 300° NW
Di, 17.05. 2:00 20 4 35 300° NW
Mo, 16.05. 20:00 4 1 29 310° NW
Ortszeit Stärke Spitze Richtung
km/h Bft. km/h Grad Sektor
Mi, 18.05. 17:00 9 2 19 140° SO
Mi, 18.05. 16:50 9 2 - 140° SO
Mi, 18.05. 16:40 11 2 - 130° SO
Mi, 18.05. 16:30 7 2 13 140° SO
Mi, 18.05. 16:20 7 2 - 140° SO
Mi, 18.05. 16:10 7 2 - 140° SO
Mi, 18.05. 16:00 9 2 15 130° SO
Mi, 18.05. 15:30 7 2 14 120° SO
Mi, 18.05. 15:00 7 2 18 110° O
Mi, 18.05. 14:30 7 2 14 140° SO
Mi, 18.05. 14:00 7 2 18 140° SO
Ortszeit Untergrenze Bedeckung Gattung
total tief tief mittel hoch
Mi, 18.05. 14:00 1500 m 7/8 7/8 - - -
Mi, 18.05. 8:00 3300 m 8/8 8/8 - - -
Mi, 18.05. 2:00 1170 m 8/8 4/8 - - -
Di, 17.05. 20:00 - 0/8 0/8 - - -
Di, 17.05. 14:00 1800 m 7/8 6/8 - - -
Di, 17.05. 8:00 480 m 8/8 8/8 - - -
Di, 17.05. 2:00 750 m 8/8 7/8 - - -
Mo, 16.05. 20:00 2400 m 8/8 8/8 - - -
Ortszeit Bedeckungsgrad in Achtel und Wolkenuntergrenze
Mi, 18.05. 17:00 5(3000m)
Mi, 18.05. 16:50 5(3000m)
Mi, 18.05. 16:40 8
Mi, 18.05. 16:30 3(1800m) 8(2700m)
Mi, 18.05. 16:20 3(1800m) 8(2700m)
Mi, 18.05. 16:10 8
Mi, 18.05. 16:00 6(2100m) 8(2700m)
Mi, 18.05. 15:30 2(1500m) 4(1800m) 8(2400m)
Mi, 18.05. 15:00 7(1500m) 8(2100m)
Mi, 18.05. 14:30 5(1800m) 8(2400m)
Mi, 18.05. 14:00 3(1500m) 7(2700m)
Ortszeit Luftdruck NN (hPa) Tendenz (hPa in 3 Std.)
Mi, 18.05. 14:00 1022 - 0,5
Mi, 18.05. 8:00 1023 + 0,9
Mi, 18.05. 2:00 1022 + 0,2
Di, 17.05. 20:00 1021 + 0,7
Di, 17.05. 14:00 1020 - 0,1
Di, 17.05. 8:00 1020 + 1,3
Di, 17.05. 2:00 1019 + 1,2
Mo, 16.05. 20:00 1016 + 0,5
Ortszeit Luftdruck NN (hPa) Tendenz (hPa in 3 Std.)
Mi, 18.05. 17:00 1021 - 0,6
Mi, 18.05. 16:50 1021 keine Meldung
Mi, 18.05. 16:40 1022 keine Meldung
Mi, 18.05. 16:30 1022 - 0,5
Mi, 18.05. 16:20 1022 keine Meldung
Mi, 18.05. 16:10 1022 keine Meldung
Mi, 18.05. 16:00 1022 - 0,4
Mi, 18.05. 15:30 1022 - 0,2
Mi, 18.05. 15:00 1022 - 0,4
Mi, 18.05. 14:30 1022 - 0,5
Mi, 18.05. 14:00 1022 - 0,5
Ortszeit Schneehöhe (cm)
Mi, 18.05. 14:00 0
Mi, 18.05. 8:00 0
Mi, 18.05. 2:00 0
Di, 17.05. 20:00 0
Di, 17.05. 14:00 0
Di, 17.05. 8:00 0
Di, 17.05. 2:00 0
Mo, 16.05. 20:00 0
Ortszeit Schneehöhe (cm)
Mi, 18.05. 17:00 0
Mi, 18.05. 16:50 0
Mi, 18.05. 16:40 0
Mi, 18.05. 16:30 0
Mi, 18.05. 16:20 0
Mi, 18.05. 16:10 0
Mi, 18.05. 16:00 0
Mi, 18.05. 15:30 0
Mi, 18.05. 15:00 0
Mi, 18.05. 14:30 0
Mi, 18.05. 14:00 0
Link zu dieser Seite / Seite empfehlen

Das Wetter in ...